Lake Oke West End current weather conditions

sailwx.info

Wind from 017 at 12 knots gusting 14

Water temperature -7999.0° C

Last reported at 2020-Jan-21 03:45 UTC.
Time now 2020-Jan-21 05:11 UTC

Location: N 26°58' W 080°56'.
View on Google Maps.

See reports from other nearby stations

  
Tides and Currents Weather Stations Pressure Air Temp Water Temp Dewpoint Dewpoint Depression Visibility Wind Speed Wind Dir Waves Ship Positions
date/time (UTC)wind fromknots sea level pressurealtimeterstation pressurevisibilityair tempwater tempwave heightnotes
2020-Jan-21 03:45 017 12 gusting 14 -7999.0
2020-Jan-21 03:30 020 13 gusting 15 -7999.0
2020-Jan-21 03:15 020 13 gusting 15 -7.2-7999.0
2020-Jan-21 02:45 016 11 gusting 13 12.9-7999.0
2020-Jan-21 02:30 022 10 gusting 11 13.2-7999.0
2020-Jan-21 02:15 020 11 gusting 12 13.5-7999.0
2020-Jan-21 01:45 019 13 gusting 15 13.8-7999.0
2020-Jan-21 01:30 017 12 gusting 16 14.3-7999.0
2020-Jan-21 01:15 007 13 gusting 14 14.6-7999.0
2020-Jan-21 00:45 010 12 gusting 14 15.0-7999.0
2020-Jan-21 00:30 013 13 gusting 15 15.1-7999.0
2020-Jan-21 00:15 013 13 gusting 15 15.3-7999.0
2020-Jan-20 23:45 009 13 gusting 14 16.0-7999.0
2020-Jan-20 23:30 019 13 gusting 14 16.4-7999.0
2020-Jan-20 23:15 035 11 gusting 13 16.8-7999.0
2020-Jan-20 22:45 006 11 gusting 13 17.3-7999.0
2020-Jan-20 22:30 063 11 gusting 12 17.7-7999.0
2020-Jan-20 22:15 034 10 gusting 12 18.0-7999.0
2020-Jan-20 21:45 103 11 gusting 14 18.4-7999.0
2020-Jan-20 21:30 159 11 gusting 13 18.0-7999.0
2020-Jan-20 21:15 196 11 gusting 13 19.0-7999.0
2020-Jan-20 20:45 189 10 gusting 13 19.4-7999.0
2020-Jan-20 20:30 259 10 gusting 14 19.6-7999.0
2020-Jan-20 20:15 237 10 gusting 12 19.6-7999.0
2020-Jan-20 19:45 138 9 gusting 13 19.8-7999.0
2020-Jan-20 19:30 176 10 gusting 12 19.7-7999.0
2020-Jan-20 19:15 183 9 gusting 12 19.8-7999.0
2020-Jan-20 19:00 291 10 gusting 12 19.3-7999.0
2020-Jan-20 18:45 314 10 gusting 14 18.9-7999.0
2020-Jan-20 18:30 307 10 gusting 12 18.3-7999.0
2020-Jan-20 18:15 222 9 gusting 11 16.9-7999.0
2020-Jan-20 18:00 232 9 gusting 13 16.3-7999.0
2020-Jan-20 17:45 206 10 gusting 13 18.4-7999.0
2020-Jan-20 17:30 255 9 gusting 11 18.4-7999.0
2020-Jan-20 17:15 195 8 gusting 11 17.6-7999.0
2020-Jan-20 16:45 143 8 gusting 11 17.8-7999.0
2020-Jan-20 16:30 075 8 gusting 11 17.7-7999.0
2020-Jan-20 16:15 089 6 gusting 9 17.0-7999.0
2020-Jan-20 16:00 049 6 gusting 9 16.3-7999.0
2020-Jan-20 15:45 104 9 gusting 11 15.3-7999.0
2020-Jan-20 15:30 079 11 gusting 13 14.4-7999.0
2020-Jan-20 15:15 162 11 gusting 13 13.5-7999.0
2020-Jan-20 14:45 233 13 gusting 15 13.6-7999.0
2020-Jan-20 14:30 228 13 gusting 16 13.6-7999.0
2020-Jan-20 14:15 269 13 gusting 15 -40.6-7999.0
2020-Jan-20 13:45 200 13 gusting 15 -7999.0
2020-Jan-20 13:30 127 12 gusting 14 -7999.0
2020-Jan-20 13:15 016 14 gusting 16 -7999.0
2020-Jan-20 12:45 021 16 gusting 18 -7999.0
2020-Jan-20 12:30 013 13 gusting 15 -7999.0
2020-Jan-20 12:15 054 12 gusting 15 -7999.0
2020-Jan-20 11:45 120 13 gusting 15 -7999.0
2020-Jan-20 11:30 257 14 gusting 16 -7999.0
2020-Jan-20 11:15 142 16 gusting 18 -7999.0
2020-Jan-20 10:45 284 12 gusting 20 -7999.0
2020-Jan-20 10:30 334 7 gusting 9 -7999.0
2020-Jan-20 10:15 328 6 gusting 8 -7999.0
2020-Jan-20 09:45 324 7 gusting 8 -7999.0
2020-Jan-20 09:30 319 7 gusting 8 -7999.0
2020-Jan-20 09:15 321 6 gusting 8 -7999.0
2020-Jan-20 08:45 332 6 gusting 7 -7999.0
2020-Jan-20 08:30 333 7 gusting 8 -7999.0
2020-Jan-20 08:15 333 7 gusting 9 -7999.0
2020-Jan-20 07:45 319 7 gusting 9 -7999.0
2020-Jan-20 07:30 319 6 gusting 8 -7999.0
2020-Jan-20 07:15 316 5 gusting 8 -7999.0
2020-Jan-20 06:45 303 5 gusting 7 -7999.0
2020-Jan-20 06:30 299 5 gusting 8 -7999.0
2020-Jan-20 06:15 289 6 gusting 8 -7999.0
2020-Jan-20 05:45 275 7 gusting 8 -7999.0
2020-Jan-20 05:30 277 7 gusting 8 -7999.0
2020-Jan-20 05:15 285 7 gusting 9 -7999.0
2020-Jan-20 04:45 279 6 gusting 8 -7999.0
2020-Jan-20 04:30 287 6 gusting 7 -7999.0
2020-Jan-20 04:15 294 5 gusting 7 -7999.0
2020-Jan-20 03:45 266 6 gusting 7 -7999.0
2020-Jan-20 03:30 269 6 gusting 7 -7999.0
2020-Jan-20 03:15 273 6 gusting 8 -7999.0
2020-Jan-20 02:45 286 5 gusting 7 -7999.0
2020-Jan-20 02:30 291 5 gusting 6 -7999.0
2020-Jan-20 02:15 301 5 gusting 7 -7999.0
2020-Jan-20 01:45 297 6 gusting 7 -7999.0
2020-Jan-20 01:30 282 6 gusting 7 -7999.0
2020-Jan-20 01:15 282 6 gusting 7 -7999.0
2020-Jan-20 00:45 295 6 gusting 8 -7999.0
2020-Jan-20 00:30 278 7 gusting 8 -7999.0
2020-Jan-20 00:15 285 6 gusting 7 -7999.0
2020-Jan-19 23:45 294 6 gusting 7 -53.7-7999.0
2020-Jan-19 23:30 291 7 gusting 8 23.4-7999.0
2020-Jan-19 23:15 282 8 gusting 9 23.7-7999.0
2020-Jan-19 22:45 292 5 gusting 6 24.6-7999.0
2020-Jan-19 22:30 274 7 gusting 9 25.2-7999.0
2020-Jan-19 22:15 263 7 gusting 8 25.6-7999.0
2020-Jan-19 21:45 272 8 gusting 12 26.8-7999.0
2020-Jan-19 21:30 275 5 gusting 8 27.1-7999.0
2020-Jan-19 21:15 261 5 gusting 7 27.0-7999.0
2020-Jan-19 20:45 253 7 gusting 9 26.9-7999.0
2020-Jan-19 20:30 247 6 gusting 8 27.0-7999.0
2020-Jan-19 20:15 258 6 gusting 11 27.6-7999.0
2020-Jan-19 19:45 225 6 gusting 8 27.2-7999.0
2020-Jan-19 19:30 230 6 gusting 8 27.1-7999.0
2020-Jan-19 19:15 234 6 gusting 10 27.2-7999.0
2020-Jan-19 18:45 256 8 gusting 12 27.3-7999.0
2020-Jan-19 18:30 247 9 gusting 12 26.7-7999.0
2020-Jan-19 18:15 252 8 gusting 11 26.9-7999.0
2020-Jan-19 17:45 250 8 gusting 12 26.4-7999.0
2020-Jan-19 17:30 226 7 gusting 11 26.8-7999.0
2020-Jan-19 17:15 201 8 gusting 11 25.8-7999.0
2020-Jan-19 16:45 200 8 gusting 11 26.1-7999.0
2020-Jan-19 16:30 195 8 gusting 11 26.1-7999.0
2020-Jan-19 16:15 189 9 gusting 11 25.2-7999.0
2020-Jan-19 15:45 180 11 gusting 13 24.0-7999.0
2020-Jan-19 15:30 171 11 gusting 13 -15.8-7999.0
2020-Jan-19 15:15 172 12 gusting 15 -7999.0
2020-Jan-19 14:45 175 13 gusting 15 -7999.0
2020-Jan-19 14:30 180 11 gusting 14 -7999.0
2020-Jan-19 14:15 180 9 gusting 10 -7999.0
2020-Jan-19 13:45 183 10 gusting 12 -7999.0
2020-Jan-19 13:30 184 10 gusting 12 -7999.0
2020-Jan-19 13:15 180 11 gusting 13 -7999.0
2020-Jan-19 12:45 177 10 gusting 12 -7999.0
2020-Jan-19 12:30 177 11 gusting 12 -7999.0
2020-Jan-19 12:15 176 11 gusting 13 -7999.0
2020-Jan-19 11:45 170 6 gusting 8 -7999.0
2020-Jan-19 11:30 175 6 gusting 8 -7999.0
2020-Jan-19 11:15 177 6 gusting 7 -7999.0
2020-Jan-19 10:45 190 6 gusting 8 -7999.0
2020-Jan-19 10:30 190 8 gusting 11 -7999.0
2020-Jan-19 10:15 185 10 gusting 13 -7999.0
2020-Jan-19 09:45 177 11 gusting 12 -7999.0
2020-Jan-19 09:30 166 11 gusting 13 -7999.0
2020-Jan-19 09:15 161 11 gusting 12 -7999.0
2020-Jan-19 08:45 162 11 gusting 13 -7999.0
2020-Jan-19 08:30 167 11 gusting 13 -7999.0
2020-Jan-19 08:15 168 12 gusting 13 -7999.0
2020-Jan-19 07:45 171 10 gusting 12 -7999.0
2020-Jan-19 07:30 167 9 gusting 11 -7999.0
2020-Jan-19 07:15 164 7 gusting 9 -7999.0
2020-Jan-19 06:45 170 6 gusting 8 -7999.0
2020-Jan-19 06:30 169 7 gusting 9 -7999.0
2020-Jan-19 06:15 167 7 gusting 9 -7999.0
2020-Jan-19 05:45 162 8 gusting 9 -7999.0
2020-Jan-19 05:30 159 7 gusting 9 -7999.0
2020-Jan-19 05:15 156 6 gusting 8 -7999.0